Time;durP1;ratioP1;P1;durP2;ratioP2;P2;SDS_P1;SDS_P2;PMS_P1;PMS_P2;Temp;Humidity;BMP_temperature;BMP_pressure;BME280_temperature;BME280_humidity;BME280_pressure;Samples;Min_cycle;Max_cycle;Signal;HPM_P1;HPM_P2
2024/01/26 00:01:30;;;;;;;43.38;18.33;;;8.30;99.90;;;;;;5013754;28;20030;-68
2024/01/26 00:03:57;;;;;;;41.97;18.33;;;8.30;99.90;;;;;;5013543;28;20056;-69
2024/01/26 00:06:23;;;;;;;48.00;19.60;;;8.40;99.90;;;;;;5013145;28;20026;-68
2024/01/26 00:08:49;;;;;;;46.58;19.75;;;8.40;99.90;;;;;;5013369;28;20384;-68
2024/01/26 00:11:17;;;;;;;45.53;19.15;;;8.40;99.90;;;;;;5013529;28;20118;-68
2024/01/26 00:13:43;;;;;;;43.75;18.00;;;8.40;99.90;;;;;;5013446;28;20060;-68
2024/01/26 00:16:08;;;;;;;37.60;16.73;;;8.50;99.90;;;;;;5013507;28;20073;-68
2024/01/26 00:18:35;;;;;;;39.65;15.95;;;8.50;99.90;;;;;;5013492;28;20038;-69
2024/01/26 00:21:00;;;;;;;34.85;15.57;;;8.50;99.90;;;;;;5013456;28;20026;-68
2024/01/26 00:23:26;;;;;;;30.55;14.55;;;8.60;99.90;;;;;;5013495;28;20439;-68
2024/01/26 00:25:52;;;;;;;35.95;15.63;;;8.70;99.90;;;;;;5013127;28;20557;-68
2024/01/26 00:28:17;;;;;;;35.55;16.13;;;8.70;99.90;;;;;;5013369;28;20029;-68
2024/01/26 00:30:43;;;;;;;35.75;15.18;;;8.70;99.90;;;;;;5013082;28;20069;-69
2024/01/26 00:33:08;;;;;;;35.78;15.32;;;8.80;99.90;;;;;;5013295;28;20073;-69
2024/01/26 00:35:34;;;;;;;33.95;15.82;;;8.90;99.90;;;;;;5013317;28;20041;-69
2024/01/26 00:37:59;;;;;;;32.50;15.13;;;8.90;99.90;;;;;;5013410;28;20038;-68
2024/01/26 00:40:26;;;;;;;34.40;16.58;;;8.90;99.90;;;;;;5012795;28;20088;-69
2024/01/26 00:42:51;;;;;;;31.55;16.27;;;9.00;99.90;;;;;;5013204;28;20045;-68
2024/01/26 00:45:17;;;;;;;33.17;16.40;;;9.00;99.90;;;;;;5016805;28;20030;-68
2024/01/26 00:47:42;;;;;;;36.38;16.63;;;9.00;99.90;;;;;;5016735;28;20021;-68
2024/01/26 00:50:08;;;;;;;35.83;16.88;;;9.00;99.90;;;;;;5016763;28;20088;-68
2024/01/26 00:52:34;;;;;;;33.90;16.70;;;9.00;99.90;;;;;;5016929;28;20048;-68
2024/01/26 00:55:00;;;;;;;30.33;16.65;;;9.00;99.90;;;;;;5016865;28;20034;-68
2024/01/26 00:57:25;;;;;;;36.30;17.00;;;9.00;99.90;;;;;;5016689;28;20068;-68
2024/01/26 00:59:51;;;;;;;30.83;16.27;;;9.00;99.90;;;;;;5016648;28;20087;-68
2024/01/26 01:02:16;;;;;;;31.20;16.30;;;9.10;99.90;;;;;;5016668;28;20125;-68
2024/01/26 01:04:42;;;;;;;35.38;16.13;;;9.10;99.90;;;;;;5016582;28;20026;-67
2024/01/26 01:07:08;;;;;;;28.77;14.75;;;9.10;99.90;;;;;;5016428;28;20437;-67
2024/01/26 01:09:34;;;;;;;29.17;13.98;;;9.10;99.90;;;;;;5016575;28;20053;-67
2024/01/26 01:12:00;;;;;;;27.27;14.40;;;9.10;99.90;;;;;;5016458;28;20484;-67
2024/01/26 01:14:26;;;;;;;26.83;14.15;;;9.10;99.90;;;;;;5016209;28;20025;-67
2024/01/26 01:16:51;;;;;;;37.05;15.25;;;9.10;99.90;;;;;;5016343;28;20417;-68
2024/01/26 01:19:17;;;;;;;33.53;15.75;;;9.10;99.90;;;;;;5016328;28;20034;-68
2024/01/26 01:21:45;;;;;;;30.58;16.08;;;9.10;99.90;;;;;;5016245;28;20108;-67
2024/01/26 01:24:10;;;;;;;29.67;15.07;;;9.20;99.90;;;;;;5015886;28;20104;-67
2024/01/26 01:26:36;;;;;;;30.77;15.35;;;9.20;99.90;;;;;;5015974;28;20069;-67
2024/01/26 01:29:01;;;;;;;28.02;14.93;;;9.10;99.90;;;;;;5016269;28;20387;-68
2024/01/26 01:31:27;;;;;;;28.05;14.95;;;9.20;99.90;;;;;;5016213;28;20022;-67
2024/01/26 01:33:53;;;;;;;26.48;14.05;;;9.20;99.90;;;;;;5016050;28;20053;-67
2024/01/26 01:36:18;;;;;;;28.58;13.98;;;9.20;99.90;;;;;;5015992;28;20033;-68
2024/01/26 01:38:44;;;;;;;28.27;15.07;;;9.20;99.90;;;;;;5015935;28;20064;-68
2024/01/26 01:41:09;;;;;;;30.33;15.10;;;9.20;99.90;;;;;;5015988;28;20026;-68
2024/01/26 01:43:35;;;;;;;26.85;14.38;;;9.20;99.90;;;;;;5015638;28;20054;-68
2024/01/26 01:46:00;;;;;;;33.15;15.98;;;9.20;99.90;;;;;;5015476;28;20033;-68
2024/01/26 01:48:27;;;;;;;30.85;15.80;;;9.20;99.90;;;;;;5015461;28;20022;-68
2024/01/26 01:50:53;;;;;;;31.02;14.88;;;9.20;99.90;;;;;;5015676;28;20022;-67
2024/01/26 01:53:20;;;;;;;31.98;16.30;;;9.20;99.90;;;;;;5015575;28;20516;-68
2024/01/26 01:55:46;;;;;;;32.47;16.20;;;9.20;99.90;;;;;;5015228;28;20022;-68
2024/01/26 01:58:13;;;;;;;30.90;16.30;;;9.30;99.90;;;;;;5015539;28;20384;-68
2024/01/26 02:00:39;;;;;;;29.13;16.55;;;9.30;99.90;;;;;;5015423;28;20037;-68
2024/01/26 02:03:04;;;;;;;30.63;16.35;;;9.30;99.90;;;;;;5015234;28;20033;-67
2024/01/26 02:05:30;;;;;;;31.02;16.35;;;9.30;99.90;;;;;;5015385;28;20107;-67
2024/01/26 02:07:55;;;;;;;33.70;15.35;;;9.30;99.90;;;;;;5015190;28;20029;-69
2024/01/26 02:10:21;;;;;;;33.35;16.67;;;9.30;99.90;;;;;;5015356;28;20033;-69
2024/01/26 02:12:47;;;;;;;33.15;17.13;;;9.30;99.90;;;;;;5015281;28;20045;-69
2024/01/26 02:15:13;;;;;;;30.75;17.38;;;9.30;99.90;;;;;;5014883;28;20428;-69
2024/01/26 02:17:39;;;;;;;31.08;16.38;;;9.30;99.90;;;;;;5015104;28;20030;-69
2024/01/26 02:20:05;;;;;;;35.60;17.17;;;9.40;99.90;;;;;;5015222;28;20026;-69
2024/01/26 02:22:31;;;;;;;36.45;18.13;;;9.40;99.90;;;;;;5015188;28;20034;-69
2024/01/26 02:24:57;;;;;;;32.72;18.98;;;9.40;99.90;;;;;;5015169;28;20370;-68
2024/01/26 02:27:23;;;;;;;38.95;19.13;;;9.40;99.90;;;;;;5015044;28;20030;-68
2024/01/26 02:29:49;;;;;;;40.70;21.42;;;9.40;99.90;;;;;;5014990;28;20034;-69
2024/01/26 02:32:14;;;;;;;40.53;19.83;;;9.40;99.90;;;;;;5015034;28;20109;-68
2024/01/26 02:34:40;;;;;;;41.72;20.92;;;9.40;99.90;;;;;;5014917;28;20034;-69
2024/01/26 02:37:06;;;;;;;43.35;21.13;;;9.40;99.90;;;;;;5014777;28;20022;-68
2024/01/26 02:39:33;;;;;;;41.22;20.80;;;9.40;99.90;;;;;;5014867;28;20499;-69
2024/01/26 02:41:59;;;;;;;40.08;20.70;;;9.40;99.90;;;;;;5014934;28;20026;-69
2024/01/26 02:44:24;;;;;;;42.20;20.70;;;9.40;99.90;;;;;;5014273;28;20408;-68
2024/01/26 02:46:50;;;;;;;41.70;21.98;;;9.50;99.90;;;;;;5014632;28;20041;-69
2024/01/26 02:49:16;;;;;;;44.10;21.98;;;9.50;99.90;;;;;;5014290;28;20450;-69
2024/01/26 02:51:42;;;;;;;47.67;22.42;;;9.50;99.90;;;;;;5014633;28;20022;-68
2024/01/26 02:54:07;;;;;;;46.17;21.95;;;9.50;99.90;;;;;;5014609;28;20037;-69
2024/01/26 02:56:33;;;;;;;51.10;22.85;;;9.50;99.90;;;;;;5014319;28;20030;-68
2024/01/26 02:58:59;;;;;;;51.33;23.65;;;9.50;99.90;;;;;;5014648;28;20072;-68
2024/01/26 03:01:24;;;;;;;51.67;24.38;;;9.60;99.90;;;;;;5014267;28;20033;-69
2024/01/26 03:03:50;;;;;;;56.90;27.85;;;9.60;99.90;;;;;;5014433;28;20060;-69
2024/01/26 03:06:16;;;;;;;55.75;25.67;;;9.70;99.90;;;;;;5013361;28;20030;-69
2024/01/26 03:08:41;;;;;;;60.97;26.80;;;9.60;99.90;;;;;;5014231;28;20030;-69
2024/01/26 03:11:11;;;;;;;56.55;26.05;;;9.70;99.90;;;;;;5014192;28;20037;-69
2024/01/26 03:13:36;;;;;;;61.17;27.23;;;9.70;99.90;;;;;;5014134;28;20034;-68
2024/01/26 03:16:02;;;;;;;59.45;28.23;;;9.70;99.90;;;;;;5014346;28;20030;-69
2024/01/26 03:18:28;;;;;;;67.35;29.15;;;9.70;99.90;;;;;;5014146;28;20030;-68
2024/01/26 03:20:53;;;;;;;61.13;29.15;;;9.80;99.90;;;;;;5014230;28;20033;-69
2024/01/26 03:23:19;;;;;;;60.80;28.27;;;9.70;99.90;;;;;;5014022;28;20391;-69
2024/01/26 03:25:44;;;;;;;62.70;30.33;;;9.70;99.90;;;;;;5013906;28;20391;-69
2024/01/26 03:28:11;;;;;;;65.50;30.25;;;9.70;99.90;;;;;;5014075;28;20036;-69
2024/01/26 03:30:38;;;;;;;69.43;30.90;;;9.80;99.90;;;;;;5013925;28;20022;-68
2024/01/26 03:33:04;;;;;;;66.68;31.23;;;9.80;99.90;;;;;;5014007;28;20030;-69
2024/01/26 03:35:29;;;;;;;67.60;30.08;;;9.80;99.90;;;;;;5013979;28;20050;-68
2024/01/26 03:37:55;;;;;;;69.40;32.50;;;9.80;99.90;;;;;;5013883;28;20091;-69
2024/01/26 03:40:22;;;;;;;69.72;30.95;;;9.80;99.90;;;;;;5013812;28;20458;-69
2024/01/26 03:42:47;;;;;;;68.88;32.75;;;9.90;99.90;;;;;;5013665;28;20503;-69
2024/01/26 03:45:13;;;;;;;68.93;32.95;;;9.90;99.90;;;;;;5013622;28;20030;-68
2024/01/26 03:47:39;;;;;;;67.82;32.30;;;9.90;99.90;;;;;;5013825;28;20460;-69
2024/01/26 03:50:06;;;;;;;72.18;33.42;;;9.90;99.90;;;;;;5013555;28;20030;-68
2024/01/26 03:52:31;;;;;;;63.38;31.80;;;9.80;99.90;;;;;;5013624;28;20507;-69
2024/01/26 03:54:57;;;;;;;67.85;32.60;;;9.90;99.90;;;;;;5013669;28;20037;-68
2024/01/26 03:57:23;;;;;;;62.70;29.95;;;9.90;99.90;;;;;;5013463;28;20038;-68
2024/01/26 03:59:48;;;;;;;60.55;30.15;;;9.80;99.90;;;;;;5013528;28;20038;-68
2024/01/26 04:02:14;;;;;;;62.88;30.92;;;9.90;99.90;;;;;;5013659;28;20040;-69
2024/01/26 04:04:40;;;;;;;59.65;29.92;;;9.90;99.90;;;;;;5013413;28;20038;-69
2024/01/26 04:07:05;;;;;;;67.50;31.60;;;9.90;99.90;;;;;;5013155;28;20029;-68
2024/01/26 04:09:31;;;;;;;57.58;28.27;;;9.90;99.90;;;;;;5013162;28;20392;-68
2024/01/26 04:11:56;;;;;;;58.78;29.38;;;9.90;99.90;;;;;;5013451;28;20511;-69
2024/01/26 04:14:22;;;;;;;59.25;29.05;;;10.00;99.90;;;;;;5013144;28;20029;-68
2024/01/26 04:16:47;;;;;;;56.00;28.42;;;9.90;99.90;;;;;;5013574;28;20377;-68
2024/01/26 04:19:13;;;;;;;63.40;28.73;;;9.90;99.90;;;;;;5017332;28;20033;-69
2024/01/26 04:21:38;;;;;;;55.83;27.38;;;9.90;99.90;;;;;;5017382;28;20029;-69
2024/01/26 04:24:04;;;;;;;59.40;27.88;;;10.00;99.90;;;;;;5017399;28;20030;-69
2024/01/26 04:26:30;;;;;;;55.08;27.65;;;10.00;99.90;;;;;;5016895;28;20041;-69
2024/01/26 04:28:55;;;;;;;58.05;27.42;;;10.00;99.90;;;;;;5017130;28;20065;-70
2024/01/26 04:31:22;;;;;;;56.08;26.35;;;10.00;99.90;;;;;;5017398;28;20140;-69
2024/01/26 04:33:48;;;;;;;51.50;26.55;;;10.00;99.90;;;;;;5016761;28;20160;-69
2024/01/26 04:36:13;;;;;;;51.40;25.25;;;10.00;99.90;;;;;;5016997;28;20068;-69
2024/01/26 04:38:39;;;;;;;48.75;25.75;;;10.00;99.90;;;;;;5016892;28;20080;-68
2024/01/26 04:41:04;;;;;;;48.25;25.65;;;10.00;99.90;;;;;;5017243;28;20034;-69
2024/01/26 04:43:30;;;;;;;45.33;24.35;;;10.00;99.90;;;;;;5016739;28;20041;-68
2024/01/26 04:45:56;;;;;;;46.33;24.85;;;10.00;99.90;;;;;;5016654;28;20387;-69
2024/01/26 04:48:21;;;;;;;45.58;23.35;;;10.00;99.90;;;;;;5016951;28;20022;-69
2024/01/26 04:50:47;;;;;;;40.95;22.38;;;10.00;99.90;;;;;;5016922;28;20076;-69
2024/01/26 04:53:15;;;;;;;40.78;22.00;;;9.90;99.90;;;;;;5016737;28;20018;-69
2024/01/26 04:55:41;;;;;;;46.78;21.38;;;9.90;99.90;;;;;;5016788;28;20484;-69
2024/01/26 04:58:06;;;;;;;34.85;19.10;;;9.90;99.90;;;;;;5016793;28;20036;-69
2024/01/26 05:00:32;;;;;;;32.33;18.38;;;9.90;99.90;;;;;;5016823;28;20591;-69
2024/01/26 05:02:57;;;;;;;29.17;16.88;;;10.00;99.90;;;;;;5016299;28;20034;-70
2024/01/26 05:05:23;;;;;;;31.88;17.63;;;9.90;99.90;;;;;;5016465;28;20032;-69
2024/01/26 05:07:49;;;;;;;30.15;17.65;;;10.00;99.90;;;;;;5016235;28;20077;-69
2024/01/26 05:10:15;;;;;;;32.38;17.23;;;9.90;99.90;;;;;;5016562;28;20084;-69
2024/01/26 05:12:41;;;;;;;30.50;16.77;;;9.90;99.90;;;;;;5016548;28;20113;-69
2024/01/26 05:15:09;;;;;;;28.58;16.63;;;10.00;99.90;;;;;;5016429;28;20033;-69
2024/01/26 05:17:35;;;;;;;29.30;17.48;;;9.90;99.90;;;;;;5016319;28;20087;-69
2024/01/26 05:20:00;;;;;;;27.92;16.00;;;9.90;99.90;;;;;;5016497;28;20539;-70
2024/01/26 05:22:26;;;;;;;29.55;17.05;;;9.90;99.90;;;;;;5016316;28;20117;-70
2024/01/26 05:24:52;;;;;;;26.63;15.65;;;9.90;99.90;;;;;;5016164;28;20041;-70
2024/01/26 05:27:18;;;;;;;27.83;15.57;;;9.90;99.90;;;;;;5016299;28;20034;-70
2024/01/26 05:29:43;;;;;;;25.40;14.35;;;9.90;99.90;;;;;;5015429;28;20029;-70
2024/01/26 05:32:09;;;;;;;24.20;14.35;;;10.00;99.90;;;;;;5016281;28;20034;-70
2024/01/26 05:34:35;;;;;;;20.20;12.88;;;10.00;99.90;;;;;;5016077;28;20080;-70
2024/01/26 05:37:01;;;;;;;19.77;12.30;;;10.00;99.90;;;;;;5015993;28;20030;-70
2024/01/26 05:39:28;;;;;;;18.85;12.10;;;10.00;99.90;;;;;;5015995;28;20431;-69
2024/01/26 05:41:54;;;;;;;18.83;12.48;;;10.10;99.90;;;;;;5015948;28;20076;-69
2024/01/26 05:44:20;;;;;;;20.85;11.75;;;10.10;99.90;;;;;;5015584;28;20516;-70
2024/01/26 05:46:45;;;;;;;17.08;11.52;;;10.10;99.90;;;;;;5015340;28;20034;-70
2024/01/26 05:49:11;;;;;;;18.48;11.65;;;10.10;99.90;;;;;;5015691;28;20427;-69
2024/01/26 05:51:36;;;;;;;15.52;10.10;;;10.10;99.90;;;;;;5015843;28;20486;-70
2024/01/26 05:54:02;;;;;;;15.90;10.23;;;10.20;99.90;;;;;;5015585;28;20045;-69
2024/01/26 05:56:28;;;;;;;16.17;9.85;;;10.20;99.90;;;;;;5015423;28;20116;-69
2024/01/26 05:58:53;;;;;;;14.40;9.60;;;10.20;99.90;;;;;;5015551;28;20041;-69
2024/01/26 06:01:19;;;;;;;16.45;9.57;;;10.30;99.90;;;;;;5015612;28;20034;-70
2024/01/26 06:03:45;;;;;;;15.05;9.55;;;10.30;99.90;;;;;;5015566;28;20029;-69
2024/01/26 06:06:10;;;;;;;15.77;9.43;;;10.30;99.90;;;;;;5015205;28;20168;-69
2024/01/26 06:08:36;;;;;;;14.07;8.63;;;10.30;99.90;;;;;;5015281;28;20217;-69
2024/01/26 06:11:04;;;;;;;14.07;8.50;;;10.30;99.90;;;;;;5015567;28;20107;-70
2024/01/26 06:13:29;;;;;;;13.40;8.23;;;10.40;99.90;;;;;;5015105;28;20045;-69
2024/01/26 06:15:57;;;;;;;13.70;8.80;;;10.40;99.90;;;;;;5014853;28;20516;-69
2024/01/26 06:18:23;;;;;;;12.75;8.73;;;10.50;99.90;;;;;;5014914;28;20030;-69
2024/01/26 06:20:48;;;;;;;14.50;9.10;;;10.50;99.90;;;;;;5015065;28;20036;-69
2024/01/26 06:23:14;;;;;;;14.25;9.35;;;10.50;99.90;;;;;;5015043;28;20044;-70
2024/01/26 06:25:39;;;;;;;12.68;9.18;;;10.50;99.90;;;;;;5014956;28;20034;-69
2024/01/26 06:28:05;;;;;;;15.82;9.73;;;10.50;99.90;;;;;;5014718;28;20062;-70
2024/01/26 06:30:30;;;;;;;18.33;10.52;;;10.50;99.90;;;;;;5015092;28;20080;-70
2024/01/26 06:32:56;;;;;;;15.18;9.75;;;10.50;99.90;;;;;;5014884;28;20064;-70
2024/01/26 06:35:22;;;;;;;15.93;9.85;;;10.50;99.90;;;;;;5014882;28;20120;-69
2024/01/26 06:37:48;;;;;;;15.32;10.15;;;10.60;99.90;;;;;;5014818;28;20057;-69
2024/01/26 06:40:13;;;;;;;14.65;9.95;;;10.60;99.90;;;;;;5014775;28;20428;-69
2024/01/26 06:42:39;;;;;;;13.88;9.63;;;10.60;99.90;;;;;;5014491;28;20113;-69
2024/01/26 06:45:09;;;;;;;13.30;10.50;;;10.60;99.90;;;;;;5014362;28;20074;-69
2024/01/26 06:47:35;;;;;;;13.10;9.50;;;10.60;99.90;;;;;;5014514;28;20037;-70
2024/01/26 06:50:00;;;;;;;13.48;9.32;;;10.60;99.90;;;;;;5014366;28;20030;-69
2024/01/26 06:52:26;;;;;;;14.43;10.07;;;10.70;99.90;;;;;;5014343;28;20072;-69
2024/01/26 06:54:52;;;;;;;14.68;9.65;;;10.80;99.90;;;;;;5014387;28;20395;-69
2024/01/26 06:57:17;;;;;;;16.25;10.13;;;10.70;99.90;;;;;;5014470;28;20032;-69
2024/01/26 06:59:43;;;;;;;14.98;9.65;;;10.80;99.90;;;;;;5014138;28;20023;-70
2024/01/26 07:02:09;;;;;;;14.40;8.90;;;10.70;99.90;;;;;;5013585;28;20152;-70
2024/01/26 07:04:34;;;;;;;15.07;9.80;;;10.70;99.90;;;;;;5014783;28;20076;-70
2024/01/26 07:07:00;;;;;;;19.67;11.68;;;10.70;99.90;;;;;;5026427;28;20076;-70
2024/01/26 07:09:26;;;;;;;12.55;9.13;;;10.70;99.90;;;;;;5014250;28;20030;-69
2024/01/26 07:11:51;;;;;;;12.20;8.68;;;10.70;99.90;;;;;;5014063;28;20109;-69
2024/01/26 07:14:16;;;;;;;17.13;8.85;;;10.70;99.90;;;;;;5013910;28;20048;-69
2024/01/26 07:16:42;;;;;;;13.02;8.55;;;10.70;99.90;;;;;;5022514;28;20033;-70
2024/01/26 07:19:07;;;;;;;11.80;7.75;;;10.70;99.90;;;;;;5014208;28;20037;-72
2024/01/26 07:21:33;;;;;;;11.95;8.10;;;10.80;99.90;;;;;;5014280;28;20384;-72
2024/01/26 07:23:59;;;;;;;13.85;8.38;;;10.70;99.90;;;;;;5014047;28;20368;-72
2024/01/26 07:26:25;;;;;;;14.07;9.00;;;10.70;99.90;;;;;;5013265;28;20033;-71
2024/01/26 07:28:50;;;;;;;12.85;7.55;;;10.70;99.90;;;;;;5013957;28;20014;-72
2024/01/26 07:31:16;;;;;;;10.43;7.40;;;10.60;99.90;;;;;;5013702;28;20045;-72
2024/01/26 07:33:42;;;;;;;10.18;7.03;;;10.70;99.90;;;;;;5014301;28;20037;-72
2024/01/26 07:36:07;;;;;;;7.65;5.95;;;10.60;99.90;;;;;;5016042;28;20045;-71
2024/01/26 07:38:33;;;;;;;9.45;6.47;;;10.60;99.90;;;;;;5014204;28;20033;-72
2024/01/26 07:40:59;;;;;;;10.55;5.93;;;10.60;99.90;;;;;;5013884;28;20040;-72
2024/01/26 07:43:24;;;;;;;9.57;6.07;;;10.60;99.90;;;;;;5013347;28;20504;-72
2024/01/26 07:45:50;;;;;;;9.80;5.80;;;10.60;99.90;;;;;;5013134;28;20026;-72
2024/01/26 07:48:16;;;;;;;7.93;5.45;;;10.50;99.90;;;;;;5013322;28;20494;-72
2024/01/26 07:50:42;;;;;;;8.45;5.32;;;10.50;99.90;;;;;;5014171;28;20032;-72
2024/01/26 07:53:08;;;;;;;9.30;4.93;;;10.50;99.90;;;;;;5012986;28;20037;-72
2024/01/26 07:55:34;;;;;;;7.90;4.40;;;10.50;99.90;;;;;;5013605;28;20022;-72
2024/01/26 07:58:00;;;;;;;5.72;3.90;;;10.60;99.90;;;;;;5013557;28;20046;-72
2024/01/26 08:00:26;;;;;;;6.55;3.83;;;10.60;99.90;;;;;;5013116;28;20120;-72
2024/01/26 08:02:52;;;;;;;4.55;3.22;;;10.60;99.90;;;;;;5009319;28;20045;-72
2024/01/26 08:05:18;;;;;;;6.53;3.35;;;10.70;99.90;;;;;;5030548;28;20034;-72
2024/01/26 08:07:44;;;;;;;4.25;3.13;;;10.70;99.90;;;;;;5032796;28;20104;-72
2024/01/26 08:10:10;;;;;;;6.43;3.40;;;10.70;99.90;;;;;;5033109;28;20041;-72
2024/01/26 08:12:36;;;;;;;7.65;2.70;;;10.70;99.90;;;;;;5028558;28;20022;-72
2024/01/26 08:15:03;;;;;;;2.95;2.33;;;10.60;99.90;;;;;;5022164;28;20042;-71
2024/01/26 08:17:29;;;;;;;5.18;2.92;;;10.70;99.90;;;;;;5027671;28;20033;-72
2024/01/26 08:19:54;;;;;;;4.72;2.40;;;10.70;99.90;;;;;;5025878;28;20025;-71
2024/01/26 08:22:20;;;;;;;3.80;2.75;;;10.70;99.90;;;;;;5032893;28;20093;-72
2024/01/26 08:24:46;;;;;;;3.78;2.70;;;10.70;99.90;;;;;;5029642;28;20044;-71
2024/01/26 08:27:11;;;;;;;10.77;2.88;;;10.70;99.90;;;;;;5026829;28;20113;-71
2024/01/26 08:29:38;;;;;;;9.43;3.00;;;10.70;99.90;;;;;;5016539;28;20026;-73
2024/01/26 08:32:04;;;;;;;5.95;2.80;;;10.60;99.90;;;;;;5017663;28;20048;-73
2024/01/26 08:34:30;;;;;;;5.82;3.25;;;10.60;99.90;;;;;;5011792;28;20030;-72
2024/01/26 08:36:55;;;;;;;5.75;2.90;;;10.60;99.90;;;;;;5018102;28;20484;-72
2024/01/26 08:39:22;;;;;;;7.95;3.50;;;10.60;99.90;;;;;;5018873;28;20022;-72
2024/01/26 08:41:48;;;;;;;6.82;3.08;;;10.50;99.90;;;;;;5026684;28;20029;-72
2024/01/26 08:44:14;;;;;;;6.10;2.97;;;10.50;99.90;;;;;;5022222;28;20132;-72
2024/01/26 08:46:40;;;;;;;4.95;2.78;;;10.60;99.90;;;;;;5025883;28;20113;-71
2024/01/26 08:49:06;;;;;;;5.53;2.85;;;10.50;99.90;;;;;;5030163;28;20044;-71
2024/01/26 08:51:32;;;;;;;5.75;2.80;;;10.50;99.90;;;;;;5032476;28;20037;-71
2024/01/26 08:53:58;;;;;;;6.45;3.35;;;11.20;99.90;;;;;;5025755;28;20041;-71
2024/01/26 08:56:24;;;;;;;5.30;3.47;;;10.40;99.90;;;;;;5010561;28;20030;-71
2024/01/26 08:58:51;;;;;;;6.28;3.75;;;10.50;99.90;;;;;;5006562;28;20550;-71
2024/01/26 09:01:16;;;;;;;6.78;3.47;;;10.50;99.90;;;;;;5019666;28;20068;-73
2024/01/26 09:03:42;;;;;;;7.22;3.10;;;10.70;99.90;;;;;;5017945;28;20062;-72
2024/01/26 09:06:09;;;;;;;6.03;3.25;;;10.40;99.90;;;;;;5027809;28;20497;-72
2024/01/26 09:08:35;;;;;;;5.07;2.67;;;10.50;99.90;;;;;;5012338;28;20416;-72
2024/01/26 09:11:01;;;;;;;5.10;3.33;;;10.50;99.90;;;;;;5015963;28;20026;-72
2024/01/26 09:13:26;;;;;;;5.28;2.70;;;10.50;99.90;;;;;;5028067;28;20021;-72
2024/01/26 09:15:52;;;;;;;3.38;2.95;;;10.50;99.90;;;;;;5020375;28;20040;-72
2024/01/26 09:18:17;;;;;;;4.43;2.85;;;10.60;99.90;;;;;;5028881;28;20076;-72
2024/01/26 09:20:47;;;;;;;3.50;2.80;;;10.50;99.90;;;;;;5023130;28;20442;-72
2024/01/26 09:23:13;;;;;;;4.50;3.08;;;10.50;99.90;;;;;;5035997;28;20493;-72
2024/01/26 09:25:38;;;;;;;4.85;2.95;;;10.60;99.90;;;;;;5035718;28;20156;-72
2024/01/26 09:28:04;;;;;;;3.00;2.70;;;10.60;99.90;;;;;;5031185;28;20026;-73
2024/01/26 09:30:29;;;;;;;4.70;2.75;;;10.70;99.90;;;;;;5030382;28;20069;-72
2024/01/26 09:32:55;;;;;;;4.55;3.50;;;10.70;99.90;;;;;;5033024;28;20032;-73
2024/01/26 09:35:21;;;;;;;5.35;3.70;;;10.80;99.90;;;;;;5019174;28;20037;-71
2024/01/26 09:37:46;;;;;;;4.75;3.83;;;10.80;99.90;;;;;;5034407;28;20029;-71
2024/01/26 09:40:13;;;;;;;6.85;3.63;;;10.80;99.90;;;;;;5027800;28;20502;-70
2024/01/26 09:42:38;;;;;;;6.72;4.22;;;10.70;99.90;;;;;;5031377;28;20021;-70
2024/01/26 09:45:05;;;;;;;8.20;4.68;;;10.70;99.90;;;;;;5032617;28;20164;-71
2024/01/26 09:47:34;;;;;;;5.80;4.30;;;10.70;99.90;;;;;;5027867;28;20088;-71
2024/01/26 09:50:03;;;;;;;7.25;5.68;;;10.80;99.90;;;;;;5004958;28;20042;-71
2024/01/26 09:52:29;;;;;;;8.35;5.75;;;10.80;99.90;;;;;;4995867;28;20050;-71
2024/01/26 09:54:55;;;;;;;8.82;5.68;;;10.90;99.90;;;;;;5008710;28;20053;-71
2024/01/26 09:57:22;;;;;;;8.20;6.68;;;11.00;99.90;;;;;;5014692;28;20026;-72
2024/01/26 09:59:50;;;;;;;9.70;6.63;;;11.00;99.90;;;;;;5022296;28;20033;-72
2024/01/26 10:02:17;;;;;;;9.85;7.07;;;11.00;99.90;;;;;;5019947;28;20029;-72
2024/01/26 10:04:43;;;;;;;8.10;6.95;;;11.10;99.90;;;;;;5015255;28;20491;-72
2024/01/26 10:07:09;;;;;;;10.85;7.65;;;11.10;99.90;;;;;;5018285;28;20499;-72
2024/01/26 10:09:35;;;;;;;8.48;7.05;;;11.10;99.90;;;;;;5019032;28;20026;-72
2024/01/26 10:12:02;;;;;;;10.57;7.35;;;11.10;99.90;;;;;;5034666;28;20025;-72
2024/01/26 10:14:28;;;;;;;10.50;7.68;;;11.10;99.90;;;;;;5030703;28;20021;-71
2024/01/26 10:17:00;;;;;;;10.45;7.55;;;11.10;99.90;;;;;;5029360;28;20480;-71
2024/01/26 10:19:27;;;;;;;11.52;7.35;;;11.10;99.90;;;;;;5014005;28;20029;-71
2024/01/26 10:21:54;;;;;;;12.35;8.65;;;11.10;99.90;;;;;;5029083;28;20034;-72
2024/01/26 10:24:23;;;;;;;14.80;8.07;;;11.10;99.90;;;;;;5025410;28;20380;-72
2024/01/26 10:26:52;;;;;;;14.02;8.98;;;11.10;99.90;;;;;;5018523;28;20082;-72
2024/01/26 10:29:18;;;;;;;13.57;8.45;;;11.10;99.90;;;;;;5020613;28;20472;-72
2024/01/26 10:31:45;;;;;;;11.65;7.60;;;11.20;99.90;;;;;;5016750;28;20022;-72
2024/01/26 10:34:14;;;;;;;9.55;7.15;;;11.20;99.90;;;;;;5017404;28;20032;-73
2024/01/26 10:36:43;;;;;;;13.60;8.05;;;11.30;99.90;;;;;;5015375;28;20175;-72
2024/01/26 10:39:23;;;;;;;10.25;6.75;;;11.30;99.90;;;;;;5019217;28;20038;-71
2024/01/26 10:41:52;;;;;;;8.27;6.68;;;11.30;99.90;;;;;;5013816;28;20037;-72
2024/01/26 10:44:19;;;;;;;8.00;6.65;;;11.30;99.90;;;;;;5030776;28;20053;-72
2024/01/26 10:46:45;;;;;;;9.52;6.78;;;11.30;99.90;;;;;;5016934;28;20064;-72
2024/01/26 10:49:12;;;;;;;10.15;6.53;;;11.30;99.90;;;;;;5033738;28;20075;-70
2024/01/26 10:51:38;;;;;;;7.75;5.97;;;11.30;99.90;;;;;;5033392;28;20471;-70
2024/01/26 10:54:10;;;;;;;11.75;6.57;;;11.30;99.90;;;;;;5028349;28;20483;-71
2024/01/26 10:56:36;;;;;;;9.25;6.20;;;;;;;;;;5029944;28;20029;-71
2024/01/26 10:59:03;;;;;;;7.20;5.55;;;;;;;;;;5027798;28;20049;-71
2024/01/26 11:01:29;;;;;;;10.93;6.30;;;;;;;;;;5029193;28;20083;-71
2024/01/26 11:03:57;;;;;;;8.07;6.50;;;;;;;;;;5015250;28;20519;-72
2024/01/26 11:06:23;;;;;;;7.50;5.78;;;;;;;;;;5030992;28;20026;-73
2024/01/26 11:08:50;;;;;;;8.15;4.93;;;;;;;;;;5019421;28;20030;-73
2024/01/26 11:11:20;;;;;;;6.25;4.15;;;11.40;99.90;;;;;;5013307;28;20060;-72
2024/01/26 11:13:52;;;;;;;6.63;4.10;;;11.50;99.90;;;;;;5020572;28;20022;-73
2024/01/26 11:16:18;;;;;;;7.20;3.53;;;11.10;99.90;;;;;;5022059;28;20125;-72
2024/01/26 11:18:43;;;;;;;7.53;3.92;;;12.50;99.90;;;;;;5020755;28;20061;-72
2024/01/26 11:21:19;;;;;;;4.47;3.42;;;11.40;99.90;;;;;;5023369;28;20052;-72
2024/01/26 11:23:45;;;;;;;5.85;3.78;;;11.30;99.90;;;;;;5026506;28;20601;-73
2024/01/26 11:26:13;;;;;;;3.92;3.20;;;11.10;99.90;;;;;;5025609;28;20033;-73
2024/01/26 11:28:39;;;;;;;7.47;3.15;;;11.10;99.90;;;;;;5029946;28;20032;-72
2024/01/26 11:31:05;;;;;;;6.88;2.55;;;11.10;99.90;;;;;;5026803;28;20434;-71
2024/01/26 11:33:35;;;;;;;4.75;2.47;;;11.00;99.90;;;;;;5028636;28;20037;-71
2024/01/26 11:36:05;;;;;;;1.75;1.00;;;10.70;99.90;;;;;;5031264;28;20038;-70
2024/01/26 11:38:31;;;;;;;4.03;0.93;;;10.10;99.90;;;;;;5033444;28;20033;-71
2024/01/26 11:40:58;;;;;;;3.72;0.82;;;9.80;99.90;;;;;;5031918;28;20537;-71
2024/01/26 11:43:26;;;;;;;4.25;1.48;;;9.50;99.90;;;;;;5030928;28;20088;-71
2024/01/26 11:45:52;;;;;;;3.58;1.10;;;9.40;99.90;;;;;;5030285;28;20041;-73
2024/01/26 11:48:20;;;;;;;3.33;0.70;;;9.40;99.90;;;;;;5031210;28;20072;-71
2024/01/26 11:50:47;;;;;;;2.55;0.77;;;9.40;99.90;;;;;;5013481;28;20068;-71
2024/01/26 11:53:14;;;;;;;3.83;0.95;;;9.30;99.90;;;;;;5018828;28;20479;-70
2024/01/26 11:55:40;;;;;;;2.10;0.50;;;9.30;99.90;;;;;;5016746;28;20475;-71
2024/01/26 11:58:06;;;;;;;1.83;0.60;;;9.30;99.90;;;;;;5021561;28;20083;-70
2024/01/26 12:00:34;;;;;;;2.95;1.02;;;9.30;99.90;;;;;;5017528;28;20041;-71
2024/01/26 12:03:04;;;;;;;4.72;1.00;;;9.30;99.90;;;;;;5025018;28;20026;-71
2024/01/26 12:05:30;;;;;;;4.95;0.80;;;9.60;99.90;;;;;;5027945;28;20082;-71
2024/01/26 12:07:56;;;;;;;2.75;0.80;;;9.40;99.90;;;;;;5023454;28;20026;-71
2024/01/26 12:10:23;;;;;;;3.40;1.38;;;9.50;99.90;;;;;;5013528;28;20439;-71
2024/01/26 12:12:49;;;;;;;3.67;0.68;;;9.50;99.90;;;;;;5013481;28;20361;-71
2024/01/26 12:15:16;;;;;;;4.68;1.23;;;9.70;99.90;;;;;;5013364;28;20037;-72
2024/01/26 12:17:42;;;;;;;3.13;0.70;;;9.70;99.90;;;;;;5013099;28;20034;-71
2024/01/26 12:20:09;;;;;;;3.33;1.20;;;9.90;99.90;;;;;;5013470;28;20511;-71
2024/01/26 12:22:36;;;;;;;3.45;0.90;;;9.70;99.90;;;;;;5013012;28;20030;-72
2024/01/26 12:25:06;;;;;;;4.80;1.20;;;9.80;99.90;;;;;;5011958;28;20476;-72
2024/01/26 12:27:34;;;;;;;7.70;1.10;;;9.80;99.90;;;;;;5013238;28;20030;-72
2024/01/26 12:29:59;;;;;;;6.15;1.20;;;9.80;99.90;;;;;;4993798;28;20034;-72
2024/01/26 12:32:25;;;;;;;8.90;1.30;;;10.10;99.90;;;;;;4993688;28;20034;-72
2024/01/26 12:34:50;;;;;;;7.10;1.50;;;10.20;92.30;;;;;;4993665;28;20030;-72